Time;durP1;ratioP1;P1;durP2;ratioP2;P2;SDS_P1;SDS_P2;PMS_P1;PMS_P2;Temp;Humidity;BMP_temperature;BMP_pressure;BME280_temperature;BME280_humidity;BME280_pressure;Samples;Min_cycle;Max_cycle;Signal;HPM_P1;HPM_P2
2021/08/13 00:01:35;;;;;;;2.00;1.50;;;23.30;57.50;;;;;;5063880;28;20029;-36
2021/08/13 00:04:02;;;;;;;1.95;1.80;;;23.20;57.20;;;;;;5064131;28;20270;-36
2021/08/13 00:06:28;;;;;;;2.73;1.70;;;23.20;57.60;;;;;;5073616;28;20024;-36
2021/08/13 00:08:54;;;;;;;2.00;1.80;;;23.20;57.40;;;;;;5056778;28;20029;-36
2021/08/13 00:11:20;;;;;;;1.52;1.42;;;23.20;57.70;;;;;;5065054;28;20080;-36
2021/08/13 00:13:46;;;;;;;1.77;1.60;;;23.20;57.80;;;;;;5075903;28;20040;-36
2021/08/13 00:16:12;;;;;;;1.50;1.40;;;23.10;57.60;;;;;;5065126;28;20029;-36
2021/08/13 00:18:38;;;;;;;1.70;1.60;;;23.10;57.60;;;;;;5064743;28;20029;-36
2021/08/13 00:21:05;;;;;;;1.40;1.30;;;23.10;57.40;;;;;;5063456;28;20032;-36
2021/08/13 00:23:31;;;;;;;1.77;1.67;;;23.10;57.30;;;;;;5064714;28;20772;-35
2021/08/13 00:25:57;;;;;;;1.60;1.50;;;23.10;57.40;;;;;;5064976;28;20041;-36
2021/08/13 00:28:23;;;;;;;1.70;1.60;;;23.00;57.40;;;;;;5064842;28;20124;-36
2021/08/13 00:30:49;;;;;;;1.52;1.42;;;23.00;57.40;;;;;;5070394;28;20051;-36
2021/08/13 00:33:15;;;;;;;1.63;1.52;;;23.00;57.30;;;;;;5078836;28;20155;-36
2021/08/13 00:35:41;;;;;;;1.98;1.80;;;23.00;57.60;;;;;;5061168;28;20032;-36
2021/08/13 00:38:08;;;;;;;1.70;1.60;;;22.90;57.30;;;;;;5048609;28;20021;-36
2021/08/13 00:40:34;;;;;;;1.73;1.63;;;22.90;57.40;;;;;;5063202;28;20064;-36
2021/08/13 00:43:00;;;;;;;2.05;1.67;;;22.90;57.50;;;;;;5064428;28;20051;-36
2021/08/13 00:45:26;;;;;;;1.80;1.70;;;22.90;57.70;;;;;;5064249;28;20132;-36
2021/08/13 00:47:52;;;;;;;2.38;1.73;;;22.90;57.80;;;;;;5065710;28;20029;-36
2021/08/13 00:50:18;;;;;;;2.10;1.90;;;22.90;57.70;;;;;;5063884;28;20116;-36
2021/08/13 00:52:45;;;;;;;2.63;2.42;;;22.80;57.70;;;;;;5064107;28;20584;-37
2021/08/13 00:55:11;;;;;;;2.67;2.17;;;22.80;57.70;;;;;;5062760;28;20027;-36
2021/08/13 00:57:37;;;;;;;2.55;2.33;;;22.80;57.90;;;;;;5073143;28;20029;-36
2021/08/13 01:00:04;;;;;;;3.25;2.67;;;22.80;57.90;;;;;;5064390;28;20520;-35
2021/08/13 01:02:30;;;;;;;2.95;2.65;;;22.70;57.80;;;;;;5046832;28;20045;-36
2021/08/13 01:04:56;;;;;;;2.92;2.60;;;22.70;57.90;;;;;;5046946;28;20030;-36
2021/08/13 01:07:23;;;;;;;2.80;2.50;;;22.70;58.00;;;;;;5077994;28;20029;-36
2021/08/13 01:09:49;;;;;;;3.40;2.72;;;22.70;58.00;;;;;;5059307;28;20029;-36
2021/08/13 01:12:36;;;;;;;3.15;2.63;;;22.60;57.80;;;;;;5043222;28;20046;-36
2021/08/13 01:15:07;;;;;;;3.47;2.50;;;22.60;58.00;;;;;;5059060;28;20067;-36
2021/08/13 01:17:42;;;;;;;4.38;2.70;;;22.60;57.60;;;;;;5063759;28;20033;-36
2021/08/13 01:20:47;;;;;;;3.80;2.65;;;22.60;57.70;;;;;;5065108;28;20080;-37
2021/08/13 01:23:17;;;;;;;2.83;2.40;;;22.50;57.90;;;;;;5070277;28;20057;-36
2021/08/13 01:25:44;;;;;;;2.40;2.20;;;22.50;57.90;;;;;;5046274;28;20039;-36
2021/08/13 01:28:28;;;;;;;2.40;2.13;;;22.50;58.00;;;;;;5065566;28;20033;-36
2021/08/13 01:30:54;;;;;;;2.65;2.33;;;22.50;57.90;;;;;;5047336;28;20044;-36
2021/08/13 01:33:20;;;;;;;2.65;2.17;;;22.40;57.90;;;;;;5055124;28;20030;-36
2021/08/13 01:35:47;;;;;;;2.35;1.95;;;22.40;58.20;;;;;;5043568;28;20033;-36
2021/08/13 01:38:21;;;;;;;2.35;1.98;;;22.40;58.10;;;;;;5059687;28;20120;-36
2021/08/13 01:40:49;;;;;;;2.40;2.20;;;22.40;58.40;;;;;;5061731;28;20029;-36
2021/08/13 01:43:15;;;;;;;;;;;22.30;58.20;;;;;;5062447;28;20092;-36
2021/08/13 01:46:39;;;;;;;2.50;2.20;;;22.30;57.60;;;;;;4617632;27;13455347;-35
2021/08/13 01:49:05;;;;;;;2.55;2.17;;;22.30;58.10;;;;;;5051165;28;20105;-36
2021/08/13 01:51:31;;;;;;;2.50;2.30;;;22.20;58.20;;;;;;5077383;28;20090;-36
2021/08/13 01:53:58;;;;;;;2.80;2.47;;;22.20;58.30;;;;;;5065940;28;20037;-37
2021/08/13 01:56:26;;;;;;;2.50;2.30;;;22.20;58.40;;;;;;5077762;28;20021;-37
2021/08/13 01:58:52;;;;;;;2.58;2.20;;;22.20;58.10;;;;;;5078305;28;20108;-37
2021/08/13 02:01:18;;;;;;;2.45;2.10;;;22.10;58.10;;;;;;5077705;28;20037;-38
2021/08/13 02:03:44;;;;;;;3.30;2.22;;;22.10;58.00;;;;;;5078791;28;20024;-37
2021/08/13 02:06:11;;;;;;;2.10;1.90;;;22.10;58.00;;;;;;5078233;28;20036;-37
2021/08/13 02:08:37;;;;;;;2.23;2.00;;;22.00;58.30;;;;;;5076517;28;20047;-37
2021/08/13 02:11:04;;;;;;;2.55;2.35;;;22.00;58.00;;;;;;5061285;28;20309;-35
2021/08/13 02:13:31;;;;;;;2.35;2.15;;;22.00;58.50;;;;;;5078446;28;20036;-35
2021/08/13 02:16:03;;;;;;;2.30;2.10;;;22.00;58.80;;;;;;5079760;28;20025;-35
2021/08/13 02:18:30;;;;;;;2.50;2.30;;;22.00;58.40;;;;;;5072916;28;20024;-35
2021/08/13 02:20:56;;;;;;;2.30;2.03;;;22.00;58.50;;;;;;5079689;28;20104;-35
2021/08/13 02:23:23;;;;;;;2.10;1.90;;;21.90;58.70;;;;;;5074855;28;20036;-35
2021/08/13 02:25:49;;;;;;;2.15;1.95;;;21.90;58.70;;;;;;5077973;28;20049;-35
2021/08/13 02:28:15;;;;;;;2.50;2.17;;;21.90;58.70;;;;;;5078636;28;20017;-35
2021/08/13 02:30:41;;;;;;;1.70;1.60;;;21.90;58.80;;;;;;5079617;28;20108;-35
2021/08/13 02:33:07;;;;;;;2.10;1.85;;;21.80;58.50;;;;;;5076426;28;20034;-35
2021/08/13 02:35:34;;;;;;;2.00;1.80;;;21.80;58.50;;;;;;5079397;28;20037;-35
2021/08/13 02:38:22;;;;;;;2.80;2.20;;;21.80;58.40;;;;;;5078350;28;20024;-35
2021/08/13 02:40:56;;;;;;;2.05;1.85;;;21.80;58.70;;;;;;5078943;28;20037;-35
2021/08/13 02:43:46;;;;;;;2.22;2.03;;;21.70;58.50;;;;;;5053620;28;20072;-35
2021/08/13 02:46:12;;;;;;;1.80;1.65;;;21.70;58.60;;;;;;5062848;28;20052;-35
2021/08/13 02:48:39;;;;;;;1.73;1.60;;;21.70;58.40;;;;;;5064821;28;20032;-35
2021/08/13 02:51:06;;;;;;;2.17;2.00;;;21.70;58.80;;;;;;5099310;28;20024;-35
2021/08/13 02:53:35;;;;;;;2.65;2.08;;;21.70;58.70;;;;;;5080845;28;20040;-35
2021/08/13 02:56:15;;;;;;;2.28;2.03;;;21.60;58.50;;;;;;5060674;28;20038;-36
2021/08/13 02:58:48;;;;;;;1.70;1.60;;;21.60;58.60;;;;;;5084851;28;20040;-35
2021/08/13 03:01:17;;;;;;;2.13;1.80;;;21.60;58.50;;;;;;5051436;28;20059;-35
2021/08/13 03:03:43;;;;;;;1.70;1.60;;;21.60;58.70;;;;;;5064904;28;20020;-38
2021/08/13 03:06:11;;;;;;;1.92;1.73;;;21.50;59.10;;;;;;5081206;28;20036;-37
2021/08/13 03:08:37;;;;;;;1.65;1.55;;;21.50;59.00;;;;;;5066701;28;20017;-37
2021/08/13 03:11:04;;;;;;;1.88;1.65;;;21.50;59.20;;;;;;5063979;28;20120;-36
2021/08/13 03:13:30;;;;;;;1.98;1.77;;;21.50;59.50;;;;;;5054883;28;20088;-35
2021/08/13 03:15:56;;;;;;;1.67;1.33;;;21.40;59.10;;;;;;5047372;28;20037;-35
2021/08/13 03:18:23;;;;;;;1.55;1.45;;;21.40;59.20;;;;;;5060084;28;20024;-35
2021/08/13 03:20:49;;;;;;;1.80;1.65;;;21.40;59.30;;;;;;5048523;28;20059;-35
2021/08/13 03:23:16;;;;;;;2.10;1.80;;;21.40;59.00;;;;;;5065319;28;20023;-35
2021/08/13 03:25:43;;;;;;;2.03;1.30;;;21.30;58.90;;;;;;5067370;28;20049;-36
2021/08/13 03:28:09;;;;;;;1.75;1.42;;;21.30;59.10;;;;;;5085050;28;20606;-36
2021/08/13 03:30:42;;;;;;;1.60;1.50;;;21.30;58.80;;;;;;5066933;28;20037;-34
2021/08/13 03:33:09;;;;;;;1.58;1.48;;;21.30;59.00;;;;;;5064716;28;20036;-35
2021/08/13 03:35:36;;;;;;;1.40;1.30;;;21.20;59.20;;;;;;5066495;28;20032;-35
2021/08/13 03:38:02;;;;;;;1.52;1.42;;;21.20;59.30;;;;;;5066319;28;20051;-35
2021/08/13 03:40:29;;;;;;;1.63;1.40;;;21.20;59.30;;;;;;5085040;28;20036;-35
2021/08/13 03:42:55;;;;;;;1.23;1.13;;;21.20;59.20;;;;;;5084874;28;20028;-35
2021/08/13 03:45:21;;;;;;;1.35;1.25;;;21.10;59.20;;;;;;5074158;28;20045;-35
2021/08/13 03:47:47;;;;;;;1.50;1.30;;;21.10;59.00;;;;;;5079420;28;20032;-35
2021/08/13 03:50:13;;;;;;;1.35;1.20;;;21.10;59.00;;;;;;5084936;28;20181;-35
2021/08/13 03:52:39;;;;;;;1.60;1.30;;;21.00;58.80;;;;;;5083666;28;20051;-35
2021/08/13 03:55:06;;;;;;;1.48;1.20;;;21.00;59.50;;;;;;5068250;28;20055;-35
2021/08/13 03:57:32;;;;;;;1.40;1.30;;;21.00;60.20;;;;;;5079300;28;20033;-35
2021/08/13 03:59:58;;;;;;;1.87;1.60;;;21.00;61.80;;;;;;5084464;28;20043;-37
2021/08/13 04:02:25;;;;;;;1.55;1.35;;;21.00;61.90;;;;;;5083389;28;20097;-35
2021/08/13 04:04:51;;;;;;;1.48;1.38;;;21.00;61.60;;;;;;5084262;28;20056;-35
2021/08/13 04:07:17;;;;;;;1.90;1.70;;;21.00;61.90;;;;;;5081643;28;20036;-35
2021/08/13 04:09:43;;;;;;;1.40;1.30;;;21.10;62.10;;;;;;5074715;28;20047;-35
2021/08/13 04:12:09;;;;;;;1.30;1.20;;;21.10;62.40;;;;;;5075606;28;20032;-35
2021/08/13 04:14:36;;;;;;;1.60;1.50;;;21.10;62.30;;;;;;5083960;28;20025;-35
2021/08/13 04:17:02;;;;;;;1.48;1.38;;;21.10;62.40;;;;;;5084090;28;20040;-35
2021/08/13 04:19:28;;;;;;;1.88;1.48;;;21.20;62.30;;;;;;5084154;28;20036;-35
2021/08/13 04:21:54;;;;;;;1.40;1.30;;;21.20;62.50;;;;;;5083847;28;20024;-35
2021/08/13 04:24:20;;;;;;;1.95;1.70;;;21.20;62.80;;;;;;5070107;28;20023;-35
2021/08/13 04:26:47;;;;;;;1.48;1.38;;;21.20;62.80;;;;;;5083698;28;20036;-35
2021/08/13 04:29:13;;;;;;;1.60;1.50;;;21.20;63.40;;;;;;5084036;28;20059;-35
2021/08/13 04:31:39;;;;;;;1.40;1.30;;;21.30;62.50;;;;;;5083644;28;20051;-36
2021/08/13 04:34:05;;;;;;;1.30;1.20;;;21.30;62.40;;;;;;5083612;28;20047;-36
2021/08/13 04:36:32;;;;;;;1.40;1.30;;;21.30;62.80;;;;;;5083242;28;20040;-35
2021/08/13 04:38:58;;;;;;;1.83;1.40;;;21.30;62.60;;;;;;5083718;28;20095;-35
2021/08/13 04:41:24;;;;;;;1.77;1.58;;;21.30;62.60;;;;;;5083400;28;20032;-36
2021/08/13 04:43:50;;;;;;;1.80;1.50;;;21.30;62.70;;;;;;5083554;28;20028;-35
2021/08/13 04:46:16;;;;;;;1.65;1.55;;;21.30;62.70;;;;;;5083123;28;20055;-35
2021/08/13 04:48:42;;;;;;;1.67;1.55;;;21.30;62.90;;;;;;5083361;28;20034;-35
2021/08/13 04:51:08;;;;;;;1.45;1.30;;;21.40;62.90;;;;;;5083404;28;20035;-35
2021/08/13 04:53:35;;;;;;;1.45;1.35;;;21.40;62.90;;;;;;5083502;28;20444;-36
2021/08/13 04:56:01;;;;;;;1.20;1.10;;;21.40;62.90;;;;;;5083270;28;20055;-35
2021/08/13 04:58:27;;;;;;;1.60;1.50;;;21.40;62.80;;;;;;5083010;28;20095;-35
2021/08/13 05:00:56;;;;;;;1.77;1.67;;;21.50;62.80;;;;;;5083287;28;20036;-35
2021/08/13 05:03:22;;;;;;;1.85;1.67;;;21.50;63.10;;;;;;5083287;28;20028;-35
2021/08/13 05:05:48;;;;;;;1.63;1.52;;;21.50;63.20;;;;;;5080058;28;20036;-36
2021/08/13 05:08:14;;;;;;;1.65;1.50;;;21.50;63.30;;;;;;5075436;28;20104;-35
2021/08/13 05:10:40;;;;;;;1.60;1.50;;;21.50;63.40;;;;;;5073355;28;20051;-35
2021/08/13 05:13:07;;;;;;;1.63;1.52;;;21.50;63.60;;;;;;5083247;28;20043;-35
2021/08/13 05:15:33;;;;;;;1.90;1.60;;;21.60;63.60;;;;;;5083104;28;20025;-36
2021/08/13 05:17:59;;;;;;;1.67;1.58;;;21.60;63.50;;;;;;5083039;28;20028;-36
2021/08/13 05:20:25;;;;;;;1.85;1.50;;;21.60;63.50;;;;;;5082940;28;20031;-35
2021/08/13 05:22:51;;;;;;;1.65;1.55;;;21.60;63.70;;;;;;5065014;28;20032;-36
2021/08/13 05:25:17;;;;;;;1.65;1.50;;;21.60;63.70;;;;;;5064713;28;20043;-35
2021/08/13 05:27:46;;;;;;;1.40;1.30;;;21.60;63.70;;;;;;5081900;28;20029;-36
2021/08/13 05:30:14;;;;;;;1.50;1.40;;;21.60;63.50;;;;;;5082119;28;20025;-36
2021/08/13 05:32:44;;;;;;;1.50;1.40;;;21.70;64.30;;;;;;5064168;28;20081;-37
2021/08/13 05:35:10;;;;;;;1.70;1.55;;;21.70;63.50;;;;;;5075825;28;20124;-36
2021/08/13 05:37:37;;;;;;;1.77;1.60;;;21.70;63.50;;;;;;5064735;28;20028;-35
2021/08/13 05:40:06;;;;;;;1.83;1.40;;;21.70;63.50;;;;;;5074578;28;20393;-35
2021/08/13 05:42:33;;;;;;;1.30;1.20;;;21.70;63.50;;;;;;5082667;28;20029;-36
2021/08/13 05:44:59;;;;;;;1.75;1.38;;;21.70;64.10;;;;;;5082360;28;20074;-36
2021/08/13 05:47:25;;;;;;;1.90;1.65;;;21.70;63.60;;;;;;5082950;28;20029;-36
2021/08/13 05:49:51;;;;;;;1.88;1.63;;;21.80;63.80;;;;;;5082419;28;20779;-36
2021/08/13 05:52:17;;;;;;;2.22;1.60;;;21.80;63.80;;;;;;5082938;28;20036;-36
2021/08/13 05:54:43;;;;;;;2.00;1.48;;;21.80;63.70;;;;;;5082493;28;20029;-36
2021/08/13 05:57:10;;;;;;;1.95;1.48;;;21.80;63.80;;;;;;5082840;28;20027;-35
2021/08/13 05:59:36;;;;;;;1.52;1.35;;;21.80;63.70;;;;;;5071803;28;20021;-35
2021/08/13 06:02:02;;;;;;;1.80;1.58;;;21.80;63.70;;;;;;5076071;28;20031;-35
2021/08/13 06:04:28;;;;;;;1.80;1.48;;;21.80;63.70;;;;;;5082464;28;20107;-35
2021/08/13 06:06:54;;;;;;;1.67;1.58;;;21.80;63.70;;;;;;5082812;28;20028;-36
2021/08/13 06:09:20;;;;;;;1.50;1.40;;;21.80;63.60;;;;;;5081136;28;20029;-36
2021/08/13 06:11:47;;;;;;;2.35;1.75;;;21.80;63.50;;;;;;5082799;28;20044;-36
2021/08/13 06:14:13;;;;;;;2.50;1.63;;;21.80;63.40;;;;;;5082679;28;20025;-36
2021/08/13 06:16:39;;;;;;;1.60;1.50;;;21.90;63.50;;;;;;5082531;28;20074;-35
2021/08/13 06:19:05;;;;;;;1.67;1.50;;;21.90;63.40;;;;;;5082385;28;20043;-36
2021/08/13 06:21:31;;;;;;;1.90;1.70;;;21.90;63.40;;;;;;5082659;28;20040;-36
2021/08/13 06:23:57;;;;;;;1.70;1.60;;;21.90;63.40;;;;;;5082462;28;20032;-36
2021/08/13 06:26:24;;;;;;;1.90;1.67;;;21.90;63.40;;;;;;5082322;28;20135;-35
2021/08/13 06:28:50;;;;;;;1.90;1.70;;;21.90;63.40;;;;;;5082411;28;20428;-36
2021/08/13 06:31:16;;;;;;;1.98;1.55;;;21.90;63.40;;;;;;5075459;28;20041;-36
2021/08/13 06:33:42;;;;;;;2.47;1.73;;;21.90;63.30;;;;;;5066201;28;20104;-36
2021/08/13 06:36:09;;;;;;;2.45;1.58;;;21.90;63.50;;;;;;5079021;28;20037;-36
2021/08/13 06:38:35;;;;;;;1.85;1.63;;;21.90;63.60;;;;;;5048420;28;20021;-36
2021/08/13 06:41:02;;;;;;;2.10;1.90;;;22.00;63.70;;;;;;5083457;28;20087;-36
2021/08/13 06:43:28;;;;;;;2.00;1.58;;;22.00;63.70;;;;;;5086010;28;20027;-35
2021/08/13 06:45:54;;;;;;;1.63;1.52;;;22.00;63.70;;;;;;5085702;28;20045;-36
2021/08/13 06:48:20;;;;;;;1.50;1.40;;;22.00;63.80;;;;;;5085995;28;20028;-36
2021/08/13 06:50:46;;;;;;;1.55;1.45;;;22.00;63.80;;;;;;5085728;28;20119;-36
2021/08/13 06:53:12;;;;;;;3.65;1.73;;;22.00;63.80;;;;;;5086030;28;20025;-36
2021/08/13 06:55:39;;;;;;;1.70;1.50;;;22.00;63.80;;;;;;5085555;28;20062;-36
2021/08/13 06:58:05;;;;;;;1.67;1.52;;;22.00;63.80;;;;;;5085692;28;20025;-36
2021/08/13 07:00:31;;;;;;;2.25;1.90;;;22.00;63.80;;;;;;5085175;28;20025;-35
2021/08/13 07:02:57;;;;;;;1.60;1.50;;;22.00;63.70;;;;;;5067697;28;20146;-36
2021/08/13 07:05:23;;;;;;;1.33;1.23;;;22.00;63.60;;;;;;5085567;28;20123;-36
2021/08/13 07:07:50;;;;;;;1.87;1.77;;;22.00;63.60;;;;;;5065819;28;20036;-36
2021/08/13 07:10:16;;;;;;;1.65;1.55;;;22.00;63.50;;;;;;5065645;28;20021;-36
2021/08/13 07:12:42;;;;;;;2.90;1.37;;;22.00;63.50;;;;;;5065574;28;20029;-36
2021/08/13 07:15:09;;;;;;;1.83;1.42;;;22.00;63.50;;;;;;5074462;28;20060;-36
2021/08/13 07:17:36;;;;;;;1.83;1.73;;;22.00;63.40;;;;;;5085307;28;20024;-36
2021/08/13 07:20:03;;;;;;;1.95;1.77;;;22.00;63.40;;;;;;5073124;28;20040;-36
2021/08/13 07:22:31;;;;;;;1.60;1.50;;;22.10;63.50;;;;;;5065110;28;20032;-36
2021/08/13 07:24:58;;;;;;;2.83;1.55;;;22.10;63.40;;;;;;5076519;28;20039;-36
2021/08/13 07:27:27;;;;;;;1.60;1.50;;;22.10;63.50;;;;;;5084794;28;20047;-36
2021/08/13 07:29:53;;;;;;;2.38;1.80;;;22.10;63.50;;;;;;5084854;28;20870;-36
2021/08/13 07:32:19;;;;;;;1.83;1.70;;;22.10;63.40;;;;;;5084868;28;20042;-36
2021/08/13 07:34:45;;;;;;;2.10;1.60;;;22.10;63.50;;;;;;5084844;28;20269;-36
2021/08/13 07:37:12;;;;;;;1.65;1.55;;;22.10;63.50;;;;;;5074519;28;20028;-36
2021/08/13 07:39:38;;;;;;;2.30;1.80;;;22.10;63.50;;;;;;5075651;28;20028;-36
2021/08/13 07:42:04;;;;;;;2.15;1.77;;;22.10;63.50;;;;;;5084706;28;20033;-36
2021/08/13 07:44:30;;;;;;;1.87;1.77;;;22.10;63.50;;;;;;5084414;28;20032;-37
2021/08/13 07:46:56;;;;;;;2.15;1.58;;;22.10;63.40;;;;;;5084762;28;20280;-36
2021/08/13 07:49:23;;;;;;;1.70;1.60;;;22.10;63.40;;;;;;5084812;28;20025;-36
2021/08/13 07:51:49;;;;;;;1.50;1.40;;;22.10;63.40;;;;;;5084628;28;20033;-36
2021/08/13 07:54:15;;;;;;;1.85;1.55;;;22.10;63.40;;;;;;5084334;28;20070;-36
2021/08/13 07:56:41;;;;;;;1.67;1.58;;;22.10;63.40;;;;;;5084680;28;20013;-36
2021/08/13 07:59:07;;;;;;;1.60;1.45;;;22.10;63.40;;;;;;5084296;28;20050;-36
2021/08/13 08:01:34;;;;;;;1.88;1.70;;;22.10;63.30;;;;;;5084395;28;20056;-36
2021/08/13 08:04:00;;;;;;;1.80;1.60;;;22.10;63.40;;;;;;5084648;28;20546;-36
2021/08/13 08:06:29;;;;;;;1.70;1.60;;;22.10;63.30;;;;;;5073287;28;20131;-36
2021/08/13 08:08:56;;;;;;;1.70;1.50;;;22.10;63.30;;;;;;5074198;28;20029;-36
2021/08/13 08:11:22;;;;;;;2.08;1.67;;;22.10;63.40;;;;;;5084333;28;20028;-36
2021/08/13 08:13:48;;;;;;;1.80;1.70;;;22.10;63.40;;;;;;5084400;28;20021;-36
2021/08/13 08:16:14;;;;;;;1.85;1.65;;;22.10;63.40;;;;;;5084333;28;20020;-35
2021/08/13 08:18:40;;;;;;;1.77;1.52;;;22.10;63.40;;;;;;5084013;28;20047;-35
2021/08/13 08:21:06;;;;;;;1.77;1.67;;;22.10;63.50;;;;;;5083561;28;20050;-36
2021/08/13 08:23:33;;;;;;;1.70;1.58;;;22.10;63.50;;;;;;5084162;28;20032;-36
2021/08/13 08:25:59;;;;;;;1.85;1.50;;;22.20;63.70;;;;;;5083829;28;20036;-36
2021/08/13 08:28:25;;;;;;;1.90;1.58;;;22.20;63.70;;;;;;5083446;28;20033;-35
2021/08/13 08:30:51;;;;;;;1.70;1.60;;;22.20;63.70;;;;;;5083981;28;20732;-37
2021/08/13 08:33:17;;;;;;;2.90;1.48;;;22.20;63.60;;;;;;5083553;28;20028;-36
2021/08/13 08:35:43;;;;;;;1.70;1.50;;;22.20;63.60;;;;;;5083282;28;20050;-36
2021/08/13 08:38:10;;;;;;;1.92;1.48;;;22.20;63.70;;;;;;5083906;28;20029;-36
2021/08/13 08:40:37;;;;;;;2.65;1.70;;;22.20;63.70;;;;;;5067076;28;20522;-36
2021/08/13 08:43:04;;;;;;;;;;;22.20;63.70;;;;;;5063900;28;20037;-36
2021/08/13 08:45:32;;;;;;;1.48;1.38;;;22.20;63.70;;;;;;5079323;28;20288;-36
2021/08/13 08:48:05;;;;;;;1.92;1.73;;;22.20;63.60;;;;;;5083537;28;20032;-36
2021/08/13 08:50:32;;;;;;;1.73;1.63;;;22.20;63.60;;;;;;5083241;28;20047;-36
2021/08/13 08:52:59;;;;;;;1.60;1.48;;;22.20;63.60;;;;;;5065315;28;20047;-36
2021/08/13 08:55:26;;;;;;;1.85;1.70;;;22.20;63.60;;;;;;5064960;28;20084;-36
2021/08/13 08:57:54;;;;;;;1.90;1.80;;;22.20;63.60;;;;;;5083081;28;20036;-36
2021/08/13 09:00:20;;;;;;;1.75;1.55;;;22.20;63.60;;;;;;5083448;28;20016;-36
2021/08/13 09:02:46;;;;;;;1.77;1.42;;;22.20;63.50;;;;;;5079371;28;20056;-36
2021/08/13 09:05:13;;;;;;;2.55;1.83;;;22.20;63.50;;;;;;5083299;28;20041;-36
2021/08/13 09:07:39;;;;;;;1.90;1.60;;;22.20;63.40;;;;;;5082963;28;20029;-36
2021/08/13 09:10:06;;;;;;;1.80;1.70;;;22.20;63.50;;;;;;5071085;28;20059;-36
2021/08/13 09:12:33;;;;;;;1.90;1.58;;;22.20;63.50;;;;;;5076537;28;20032;-36
2021/08/13 09:14:59;;;;;;;2.13;1.55;;;22.20;63.50;;;;;;5083259;28;20033;-36
2021/08/13 09:17:30;;;;;;;2.95;1.60;;;22.20;63.60;;;;;;5065047;28;20115;-36
2021/08/13 09:19:56;;;;;;;1.77;1.63;;;22.20;63.70;;;;;;5065272;28;20432;-36
2021/08/13 09:22:22;;;;;;;1.92;1.50;;;22.20;64.10;;;;;;5081574;28;20092;-36
2021/08/13 09:24:50;;;;;;;1.80;1.70;;;22.20;63.70;;;;;;5062555;28;20541;-36
2021/08/13 09:27:27;;;;;;;1.70;1.60;;;22.20;63.70;;;;;;5072571;28;20456;-36
2021/08/13 09:30:16;;;;;;;1.70;1.57;;;22.20;63.70;;;;;;5062768;28;20048;-36
2021/08/13 09:32:44;;;;;;;1.95;1.50;;;22.20;63.70;;;;;;5066695;28;20089;-40
2021/08/13 09:35:12;;;;;;;2.13;1.77;;;22.20;63.70;;;;;;5062823;28;20037;-36
2021/08/13 09:37:38;;;;;;;1.70;1.42;;;22.20;63.70;;;;;;5063297;28;20033;-36
2021/08/13 09:40:06;;;;;;;1.60;1.50;;;22.20;63.70;;;;;;5083084;28;20032;-36
2021/08/13 09:42:35;;;;;;;1.65;1.55;;;22.20;63.70;;;;;;5073472;28;20674;-37
2021/08/13 09:45:06;;;;;;;2.03;1.83;;;22.20;63.70;;;;;;5062312;28;20139;-36
2021/08/13 09:47:43;;;;;;;2.10;1.70;;;22.20;63.80;;;;;;5075063;28;20032;-36
2021/08/13 09:50:11;;;;;;;1.90;1.63;;;22.20;63.70;;;;;;5082434;28;20024;-36
2021/08/13 09:52:37;;;;;;;1.58;1.48;;;22.20;63.70;;;;;;5082516;28;20277;-36
2021/08/13 09:55:12;;;;;;;1.53;1.40;;;22.20;63.70;;;;;;5082351;28;20112;-36
2021/08/13 09:57:41;;;;;;;1.80;1.60;;;22.20;63.70;;;;;;5082343;28;20273;-36
2021/08/13 10:00:09;;;;;;;2.10;1.60;;;22.20;63.80;;;;;;5082821;28;20025;-36
2021/08/13 10:02:35;;;;;;;;;;;22.20;63.80;;;;;;5077433;28;20032;-36
2021/08/13 10:05:18;;;;;;;1.70;1.60;;;22.20;63.80;;;;;;5082454;28;20647;-36
2021/08/13 10:07:58;;;;;;;2.45;1.75;;;22.20;63.80;;;;;;5084718;28;20029;-36
2021/08/13 10:10:25;;;;;;;1.77;1.55;;;22.20;63.90;;;;;;5071477;28;20033;-36
2021/08/13 10:12:51;;;;;;;2.42;1.52;;;22.20;63.80;;;;;;5081631;28;20024;-36
2021/08/13 10:15:34;;;;;;;2.00;1.80;;;22.20;63.80;;;;;;5084276;28;20024;-39
2021/08/13 10:18:06;;;;;;;1.58;1.48;;;22.20;63.80;;;;;;5066093;28;20025;-36
2021/08/13 10:20:34;;;;;;;1.98;1.73;;;22.20;63.80;;;;;;5065884;28;20036;-36
2021/08/13 10:23:00;;;;;;;1.95;1.75;;;22.20;63.80;;;;;;5064924;28;20037;-36
2021/08/13 10:25:26;;;;;;;1.85;1.75;;;22.20;63.80;;;;;;5085789;28;20033;-36
2021/08/13 10:27:55;;;;;;;2.00;1.80;;;22.20;63.80;;;;;;5086015;28;20029;-36
2021/08/13 10:30:22;;;;;;;1.70;1.60;;;22.20;63.80;;;;;;5086240;28;20020;-36
2021/08/13 10:32:51;;;;;;;2.53;2.03;;;22.20;63.80;;;;;;5080555;28;20033;-36
2021/08/13 10:35:17;;;;;;;2.47;1.67;;;22.20;63.80;;;;;;5085984;28;20029;-36
2021/08/13 10:37:43;;;;;;;1.63;1.50;;;22.20;63.80;;;;;;5080814;28;20033;-36
2021/08/13 10:40:11;;;;;;;1.58;1.48;;;22.20;63.80;;;;;;5068020;28;20700;-36
2021/08/13 10:42:40;;;;;;;1.52;1.42;;;22.20;63.80;;;;;;5085247;28;20035;-36
2021/08/13 10:45:08;;;;;;;1.60;1.50;;;22.20;63.90;;;;;;5067656;28;20041;-36
2021/08/13 10:47:36;;;;;;;2.00;1.58;;;22.20;63.90;;;;;;5067702;28;20020;-36
2021/08/13 10:50:03;;;;;;;1.60;1.50;;;22.20;63.90;;;;;;5051395;28;20021;-36
2021/08/13 10:52:36;;;;;;;1.70;1.50;;;22.30;64.10;;;;;;5050571;28;20032;-36
2021/08/13 10:55:04;;;;;;;1.85;1.60;;;22.20;64.00;;;;;;5085227;28;20078;-36
2021/08/13 10:57:48;;;;;;;1.92;1.40;;;22.20;64.80;;;;;;5085336;28;20040;-36
2021/08/13 11:00:15;;;;;;;1.80;1.70;;;22.20;64.00;;;;;;5085429;28;20035;-36
2021/08/13 11:03:20;;;;;;;3.20;1.58;;;22.20;64.00;;;;;;5080443;28;20059;-36
2021/08/13 11:05:53;;;;;;;1.80;1.70;;;22.20;64.00;;;;;;5085236;28;20099;-36
2021/08/13 11:08:20;;;;;;;1.80;1.70;;;22.20;64.00;;;;;;5067837;28;20028;-36
2021/08/13 11:10:53;;;;;;;2.13;1.60;;;22.20;64.10;;;;;;5049482;28;20099;-36
2021/08/13 11:13:19;;;;;;;1.60;1.45;;;22.20;64.10;;;;;;5084169;28;20037;-36
2021/08/13 11:15:46;;;;;;;2.42;1.65;;;22.20;64.10;;;;;;5085170;28;20078;-36
2021/08/13 11:18:31;;;;;;;1.42;1.33;;;22.20;64.00;;;;;;5081828;28;20052;-36
2021/08/13 11:20:58;;;;;;;1.70;1.48;;;22.20;64.00;;;;;;5085161;28;20024;-36
2021/08/13 11:23:24;;;;;;;;;;;22.20;64.00;;;;;;5085079;28;20028;-36
2021/08/13 11:25:51;;;;;;;1.67;1.38;;;22.20;64.10;;;;;;5084391;28;20447;-36
2021/08/13 11:28:25;;;;;;;1.75;1.65;;;22.20;64.10;;;;;;5082633;28;20027;-36
2021/08/13 11:30:52;;;;;;;1.70;1.60;;;22.20;64.20;;;;;;5084083;28;20035;-36
2021/08/13 11:33:39;;;;;;;1.60;1.50;;;22.20;64.20;;;;;;5084541;28;20029;-36
2021/08/13 11:36:05;;;;;;;1.90;1.52;;;22.20;64.20;;;;;;5084482;28;20024;-36
2021/08/13 11:38:43;;;;;;;1.70;1.60;;;22.20;64.20;;;;;;5084746;28;20099;-36
2021/08/13 11:41:22;;;;;;;3.63;1.65;;;22.30;64.40;;;;;;5083987;28;20028;-36
2021/08/13 11:43:59;;;;;;;1.52;1.42;;;22.20;64.20;;;;;;5084362;28;20028;-36
2021/08/13 11:46:42;;;;;;;1.83;1.42;;;22.20;64.20;;;;;;5084402;28;20080;-36
2021/08/13 11:49:08;;;;;;;1.70;1.25;;;22.20;64.20;;;;;;5074874;28;20468;-36
2021/08/13 11:51:36;;;;;;;1.92;1.70;;;22.20;64.20;;;;;;5084498;28;20036;-36
2021/08/13 11:54:03;;;;;;;1.85;1.45;;;22.20;64.20;;;;;;5083321;28;20067;-36
2021/08/13 11:56:31;;;;;;;1.73;1.50;;;22.20;64.10;;;;;;5084018;28;20459;-36
2021/08/13 11:59:15;;;;;;;1.70;1.60;;;22.20;64.10;;;;;;5084305;28;20031;-36
2021/08/13 12:01:49;;;;;;;1.70;1.52;;;22.20;64.10;;;;;;5073694;28;20025;-36
2021/08/13 12:04:24;;;;;;;1.55;1.45;;;22.20;64.20;;;;;;5063915;28;20029;-36
2021/08/13 12:07:08;;;;;;;1.38;1.27;;;22.20;64.10;;;;;;5057579;28;20044;-36
2021/08/13 12:09:42;;;;;;;2.03;1.50;;;22.20;64.20;;;;;;5076277;28;20791;-36
2021/08/13 12:12:09;;;;;;;1.88;1.65;;;22.20;64.10;;;;;;5063859;28;20029;-36
2021/08/13 12:14:37;;;;;;;1.52;1.42;;;22.20;64.20;;;;;;5063766;28;20032;-36
2021/08/13 12:17:03;;;;;;;1.67;1.52;;;22.20;64.20;;;;;;5063907;28;20044;-36
2021/08/13 12:19:29;;;;;;;2.88;1.40;;;22.20;64.20;;;;;;5067169;28;20056;-36
2021/08/13 12:21:56;;;;;;;1.35;1.25;;;22.20;64.30;;;;;;5083083;28;20028;-36
2021/08/13 12:24:40;;;;;;;1.55;1.45;;;22.20;64.30;;;;;;5083579;28;20052;-36
2021/08/13 12:27:11;;;;;;;1.60;1.50;;;22.20;64.40;;;;;;5083709;28;20091;-36
2021/08/13 12:29:38;;;;;;;1.75;1.58;;;22.20;64.30;;;;;;5065075;28;20033;-36
2021/08/13 12:32:08;;;;;;;;;;;22.20;64.40;;;;;;5083626;28;20028;-36
2021/08/13 12:34:36;;;;;;;1.60;1.50;;;22.20;64.30;;;;;;5082908;28;19989;-36
2021/08/13 12:37:06;;;;;;;1.60;1.50;;;22.20;64.30;;;;;;5070292;28;20561;-35
2021/08/13 12:39:33;;;;;;;1.33;1.23;;;22.20;64.30;;;;;;5063478;28;20028;-36
2021/08/13 12:41:59;;;;;;;2.00;1.48;;;22.20;64.30;;;;;;5045478;28;20025;-36
2021/08/13 12:44:26;;;;;;;1.40;1.30;;;22.20;64.30;;;;;;5045138;28;20389;-36
2021/08/13 12:46:52;;;;;;;1.67;1.52;;;22.20;64.30;;;;;;5062958;28;20040;-35
2021/08/13 12:49:21;;;;;;;1.45;1.30;;;22.20;64.30;;;;;;5030638;28;20039;-36
2021/08/13 12:51:48;;;;;;;1.50;1.40;;;22.30;64.30;;;;;;5063070;28;20088;-36
2021/08/13 12:54:33;;;;;;;1.70;1.60;;;22.30;64.30;;;;;;5066593;28;20027;-36